Sloman Herakles — V2FY4 — position and weather

sailwx.info

Track history (hours):
 
Tides and Currents Weather Stations Pressure Air Temp Water Temp Dewpoint Dewpoint Depression Visibility Wind Speed Wind Dir Waves Ship Positions

Sloman Herakles

Last reported at 2017-Aug-19 22:36 UTC. Time now 2017-Aug-20 11:35 UTC.
Position N 57°54' E 006°07'.

Length 145 m; draft 7.5 m.

Type: Tanker. MMSI: 305851000.

Date/timePositionNaut miles runAvg speedWind from/ knotsBaromVisibWave heightAir tempDewpointWater temp
2017-Aug-19 22:36N 57°54' E 006°07'312.8
2017-Aug-19 22:24N 57°53' E 006°12'512.2
2017-Aug-19 22:00N 57°52' E 006°21'612.5
2017-Aug-19 21:30N 57°50' E 006°32'612.5
2017-Aug-19 21:00N 57°49' E 006°44'613.0
2017-Aug-19 20:30N 57°48' E 006°56'713.1
2017-Aug-19 20:00N 57°48' E 007°08'612.8
2017-Aug-19 19:30N 57°48' E 007°20'713.0
2017-Aug-19 19:00N 57°47' E 007°32'713.2
2017-Aug-19 18:30N 57°47' E 007°45'612.7
2017-Aug-19 18:00N 57°46' E 007°56'612.3
2017-Aug-19 17:30N 57°46' E 008°08'6911.2
2017-Aug-19 11:23N 57°53' E 010°16'512.0
2017-Aug-19 11:00N 57°53' E 010°25'612.1
2017-Aug-19 10:29N 57°54' E 010°37'611.5
2017-Aug-19 10:00N 57°55' E 010°47'5 9.1
2017-Aug-19 09:30N 57°55' E 010°55'0 0.9
2017-Aug-19 08:59N 57°54' E 010°56'1 1.3
2017-Aug-19 08:26N 57°54' E 010°54'1 1.1
2017-Aug-19 07:56N 57°54' E 010°54'0 1.0
2017-Aug-19 07:29N 57°54' E 010°53'1 1.0
2017-Aug-19 06:59N 57°53' E 010°52'0 1.0
2017-Aug-19 06:29N 57°53' E 010°51'1 1.0
2017-Aug-19 05:59N 57°53' E 010°50'1 1.3
2017-Aug-19 05:11N 57°53' E 010°48'0 1.3
2017-Aug-19 04:59N 57°53' E 010°48'1 1.3
2017-Aug-19 04:26N 57°54' E 010°46'1 1.4
2017-Aug-19 03:53N 57°54' E 010°45'1 1.2
2017-Aug-19 03:23N 57°54' E 010°44'0 1.1
2017-Aug-19 02:59N 57°54' E 010°43'0 0.3
2017-Aug-19 02:30N 57°54' E 010°43'4 7.6
2017-Aug-19 01:59N 57°50' E 010°44'3 6.9
2017-Aug-19 01:30N 57°47' E 010°46'4 8.0
2017-Aug-19 01:00N 57°43' E 010°44'2 2.7
2017-Aug-19 00:10N 57°42' E 010°41'0 0.0
2017-Aug-18 23:07N 57°42' E 010°41'0 0.0
2017-Aug-18 21:58N 57°42' E 010°41'0 0.0
2017-Aug-18 21:30N 57°42' E 010°41'0 0.0
2017-Aug-18 21:00N 57°42' E 010°41'0 0.1
2017-Aug-18 20:30N 57°42' E 010°41'0 0.1
2017-Aug-18 19:59N 57°42' E 010°41'0 0.0
2017-Aug-18 19:30N 57°42' E 010°41'0 0.0
2017-Aug-18 18:59N 57°42' E 010°41'0 0.0
2017-Aug-18 18:30N 57°42' E 010°41'0 0.1
2017-Aug-18 18:01N 57°42' E 010°41'2 3.7
2017-Aug-18 17:29N 57°43' E 010°44'2 5.1
2017-Aug-18 17:01N 57°44' E 010°48'3 5.9
2017-Aug-18 16:31N 57°45' E 010°53'1 2.7
2017-Aug-18 15:59N 57°44' E 010°54'5 9.6
2017-Aug-18 15:30N 57°41' E 011°01'611.0
2017-Aug-18 15:00N 57°37' E 011°08'1111.4
2017-Aug-18 14:00N 57°29' E 011°24'611.5
2017-Aug-18 13:30N 57°24' E 011°29'612.0
2017-Aug-18 13:00N 57°19' E 011°32'611.9
2017-Aug-18 12:29N 57°13' E 011°36'711.8
2017-Aug-18 11:52N 57°06' E 011°41'411.3
2017-Aug-18 11:31N 57°02' E 011°44'10711.4
2017-Aug-18 02:10N 55°18' E 011°03'211.3
2017-Aug-18 02:00N 55°16' E 011°05'611.3
2017-Aug-18 01:30N 55°10' E 011°04'713.6
2017-Aug-18 01:00N 55°04' E 011°03'612.1
2017-Aug-18 00:30N 54°58' E 010°60'612.3
2017-Aug-18 00:00N 54°53' E 010°54'612.5
2017-Aug-17 23:30N 54°47' E 010°53'611.3
2017-Aug-17 23:00N 54°41' E 010°55'611.9
2017-Aug-17 22:30N 54°38' E 011°04'510.6
2017-Aug-17 22:00N 54°36' E 011°13'5 9.3
2017-Aug-17 21:30N 54°34' E 011°20'5 9.7
2017-Aug-17 21:00N 54°32' E 011°27'5 9.8
2017-Aug-17 20:30N 54°30' E 011°35'5 9.6
2017-Aug-17 20:00N 54°28' E 011°43'9 9.3
2017-Aug-17 19:02N 54°27' E 011°58'0 9.6
2017-Aug-17 19:00N 54°27' E 011°58'5 9.4
2017-Aug-17 18:30N 54°27' E 012°06'5 9.2
2017-Aug-17 18:00N 54°31' E 012°11'713.1
2017-Aug-17 17:30N 54°37' E 012°15'3213.6
2017-Aug-17 15:07N 54°52' E 013°04'213.6
2017-Aug-17 14:57N 54°53' E 013°08'613.7
2017-Aug-17 14:30N 54°55' E 013°18'714.0
2017-Aug-17 14:00N 54°57' E 013°30'713.6
2017-Aug-17 13:30N 54°60' E 013°41'713.8
2017-Aug-17 13:00N 55°02' E 013°52'713.6
2017-Aug-17 12:30N 55°04' E 014°03'612.7
2017-Aug-17 12:00N 55°09' E 014°11'713.4
2017-Aug-17 11:30N 55°14' E 014°18'713.5
2017-Aug-17 11:00N 55°20' E 014°25'713.7
2017-Aug-17 10:30N 55°25' E 014°32'713.6
2017-Aug-17 10:00N 55°29' E 014°41'713.6
2017-Aug-17 09:31N 55°32' E 014°52'713.8
2017-Aug-17 09:01N 55°36' E 015°03'713.6
2017-Aug-17 08:31N 55°38' E 015°14'713.4
2017-Aug-17 08:01N 55°40' E 015°25'713.5
2017-Aug-17 07:31N 55°41' E 015°37'713.5
2017-Aug-17 07:00N 55°43' E 015°49'713.6
2017-Aug-17 06:31N 55°45' E 016°00'713.6
2017-Aug-17 06:01N 55°47' E 016°12'713.7
2017-Aug-17 05:31N 55°48' E 016°24'713.9
2017-Aug-17 05:00N 55°50' E 016°36'713.9
2017-Aug-17 04:31N 55°52' E 016°48'713.6
2017-Aug-17 03:59N 55°53' E 017°00'713.7
2017-Aug-17 03:30N 55°55' E 017°12'713.6
2017-Aug-17 03:00N 55°57' E 017°23'16813.1
2017-Aug-16 14:09N 58°12' E 020°25'214.4
2017-Aug-16 14:00N 58°14' E 020°28'713.5
2017-Aug-16 13:30N 58°20' E 020°34'612.9
2017-Aug-16 13:00N 58°25' E 020°41'712.8
2017-Aug-16 12:30N 58°31' E 020°48'613.0
2017-Aug-16 12:00N 58°36' E 020°55'612.6
2017-Aug-16 11:30N 58°41' E 021°01'812.7
2017-Aug-16 10:51N 58°49' E 021°09'412.7
2017-Aug-16 10:30N 58°52' E 021°14'612.0
2017-Aug-16 10:00N 58°57' E 021°20'612.4
2017-Aug-16 09:30N 59°03' E 021°26'713.7
2017-Aug-16 09:00N 59°08' E 021°33'612.5
2017-Aug-16 08:30N 59°13' E 021°43'612.4
2017-Aug-16 08:00N 59°17' E 021°52'714.5
2017-Aug-16 07:30N 59°21' E 022°03'611.6
2017-Aug-16 07:00N 59°25' E 022°12'714.8
2017-Aug-16 06:30N 59°29' E 022°24'612.1
2017-Aug-16 06:00N 59°32' E 022°34'815.8
2017-Aug-16 05:30N 59°35' E 022°48'611.8
2017-Aug-16 05:00N 59°36' E 022°60'713.1
2017-Aug-16 04:30N 59°38' E 023°12'713.3
2017-Aug-16 04:00N 59°40' E 023°25'713.4
2017-Aug-16 03:30N 59°42' E 023°38'713.7
2017-Aug-16 03:00N 59°43' E 023°51'714.0
2017-Aug-16 02:31N 59°45' E 024°04'713.1
2017-Aug-16 02:00N 59°46' E 024°17'713.6
2017-Aug-16 01:31N 59°48' E 024°30'612.4
2017-Aug-16 01:00N 59°49' E 024°42'714.9
2017-Aug-16 00:30N 59°51' E 024°57'612.3
2017-Aug-16 00:00N 59°53' E 025°08'713.1
2017-Aug-15 23:30N 59°56' E 025°19'613.0
2017-Aug-15 23:01N 59°59' E 025°30'5 9.5
2017-Aug-15 22:31N 60°04' E 025°34'510.6
2017-Aug-15 22:01N 60°09' E 025°35'612.4
2017-Aug-15 21:31N 60°15' E 025°34'3 6.9
2017-Aug-15 21:00N 60°19' E 025°34'0 0.4
2017-Aug-15 20:28N 60°19' E 025°33'0 0.0
2017-Aug-15 19:52N 60°19' E 025°33'0 0.0
2017-Aug-15 19:28N 60°19' E 025°33'0 0.0
2017-Aug-15 18:58N 60°19' E 025°33'0 0.0
2017-Aug-15 18:30N 60°19' E 025°33'0 0.0
2017-Aug-15 18:00N 60°19' E 025°33'0 0.0
2017-Aug-15 17:30N 60°19' E 025°33'0 0.0
2017-Aug-15 17:00N 60°19' E 025°33'0 0.0
2017-Aug-15 16:30N 60°19' E 025°33'0 0.0
2017-Aug-15 16:00N 60°19' E 025°33'0 0.0
2017-Aug-15 15:30N 60°19' E 025°33'0 0.0
2017-Aug-15 15:00N 60°19' E 025°33'0 0.0
2017-Aug-15 14:24N 60°19' E 025°33'0 0.0
2017-Aug-15 14:00N 60°19' E 025°33'0 0.0
2017-Aug-15 13:30N 60°19' E 025°33'0 0.0
2017-Aug-15 12:57N 60°19' E 025°33'0 0.0
2017-Aug-15 12:30N 60°19' E 025°33'0 0.0
2017-Aug-15 12:00N 60°19' E 025°33'0 0.0
2017-Aug-15 11:30N 60°19' E 025°33'0 0.0
2017-Aug-15 11:00N 60°19' E 025°33'0 0.0
2017-Aug-15 10:30N 60°19' E 025°33'0 0.0
2017-Aug-15 10:00N 60°19' E 025°33'0 0.0
2017-Aug-15 09:30N 60°19' E 025°33'0 0.0
2017-Aug-15 09:00N 60°19' E 025°33'0 0.0
2017-Aug-15 08:30N 60°19' E 025°33'0 0.0
2017-Aug-15 08:00N 60°19' E 025°33'0 0.0
2017-Aug-15 07:24N 60°19' E 025°33'0 0.0
2017-Aug-15 07:00N 60°19' E 025°33'0 0.0
2017-Aug-15 06:30N 60°19' E 025°33'0 0.0
2017-Aug-15 06:00N 60°19' E 025°33'0 0.0
2017-Aug-15 05:30N 60°19' E 025°33'0 0.0
2017-Aug-15 05:00N 60°19' E 025°33'0 0.0
2017-Aug-15 04:30N 60°19' E 025°33'0 0.0
2017-Aug-15 04:00N 60°19' E 025°33'0 0.0
2017-Aug-15 03:30N 60°19' E 025°33'0 0.0
2017-Aug-15 03:00N 60°19' E 025°33'0 0.0
2017-Aug-15 02:30N 60°19' E 025°33'0 0.0
2017-Aug-15 02:00N 60°19' E 025°33'1 1.7
2017-Aug-15 01:30N 60°18' E 025°33'4 8.0
2017-Aug-15 01:00N 60°14' E 025°35'611.5
2017-Aug-15 00:30N 60°08' E 025°35'5 9.8
2017-Aug-15 00:00N 60°03' E 025°34'3 6.2
2017-Aug-14 23:30N 60°01' E 025°31'0 0.4
2017-Aug-14 23:00N 60°01' E 025°31'0 0.0
2017-Aug-14 22:30N 60°01' E 025°31'0 0.0
2017-Aug-14 22:00N 60°01' E 025°31'0 0.0
2017-Aug-14 21:30N 60°01' E 025°31'0 0.0
2017-Aug-14 21:00N 60°01' E 025°31'0 0.0
2017-Aug-14 20:30N 60°01' E 025°31'0 0.0
2017-Aug-14 20:00N 60°01' E 025°31'0 0.0
2017-Aug-14 19:30N 60°01' E 025°31'0 0.0
2017-Aug-14 19:00N 60°01' E 025°31'0 0.0
2017-Aug-14 18:30N 60°01' E 025°31'0 0.0
2017-Aug-14 18:00N 60°01' E 025°31'0 0.0
2017-Aug-14 17:30N 60°01' E 025°31'0 0.0
2017-Aug-14 17:00N 60°01' E 025°31'0 0.0
2017-Aug-14 16:30N 60°01' E 025°31'0 0.0
2017-Aug-14 16:00N 60°01' E 025°31'0 0.0
2017-Aug-14 15:30N 60°01' E 025°31'0 0.0
2017-Aug-14 15:00N 60°01' E 025°31'0 0.0
2017-Aug-14 14:30N 60°01' E 025°31'0 0.0
2017-Aug-14 14:00N 60°01' E 025°31'0 0.0
2017-Aug-14 13:30N 60°01' E 025°31'0 0.0
2017-Aug-14 13:00N 60°01' E 025°31'0 0.1
2017-Aug-14 12:30N 60°01' E 025°31'0 0.1
2017-Aug-14 12:00N 60°01' E 025°31'0 0.1
2017-Aug-14 11:30N 60°01' E 025°31'0 0.1
2017-Aug-14 11:00N 60°01' E 025°31'0 0.0
2017-Aug-14 10:31N 60°01' E 025°31'0 0.0
2017-Aug-14 10:01N 60°01' E 025°31'0 0.0
2017-Aug-14 09:31N 60°01' E 025°31'0 0.0
2017-Aug-14 09:00N 60°01' E 025°31'0 0.0
2017-Aug-14 08:30N 60°01' E 025°31'0 0.0
2017-Aug-14 08:00N 60°01' E 025°31'0 0.0
2017-Aug-14 07:30N 60°01' E 025°31'0 0.0
2017-Aug-14 07:00N 60°01' E 025°31'0 0.0
2017-Aug-14 06:30N 60°01' E 025°31'0 0.0
2017-Aug-14 06:00N 60°01' E 025°31'0 0.0
2017-Aug-14 05:30N 60°01' E 025°31'0 0.0
2017-Aug-14 05:00N 60°01' E 025°31'0 0.0
2017-Aug-14 04:30N 60°01' E 025°31'0 0.0
2017-Aug-14 04:00N 60°01' E 025°31'0 0.0
2017-Aug-14 03:30N 60°01' E 025°31'0 0.0
2017-Aug-14 03:00N 60°01' E 025°31'0 0.0
2017-Aug-14 02:31N 60°01' E 025°31'0 0.0
2017-Aug-14 02:00N 60°01' E 025°31'0 0.0
2017-Aug-14 01:30N 60°01' E 025°31'0 0.0
2017-Aug-14 01:00N 60°01' E 025°31'0 0.0
2017-Aug-14 00:31N 60°01' E 025°31'0 0.0
2017-Aug-14 00:01N 60°01' E 025°31'0 0.1
2017-Aug-13 23:30N 60°01' E 025°31'0 0.0
2017-Aug-13 23:00N 60°01' E 025°31'0 0.0
2017-Aug-13 22:30N 60°01' E 025°31'0 0.0
2017-Aug-13 22:00N 60°01' E 025°31'0 0.0
2017-Aug-13 21:31N 60°01' E 025°31'0 0.0
2017-Aug-13 21:00N 60°01' E 025°31'0 0.0
2017-Aug-13 20:30N 60°01' E 025°31'0 0.1
2017-Aug-13 20:00N 60°01' E 025°31'0 0.1
2017-Aug-13 19:30N 60°01' E 025°31'0 0.1
2017-Aug-13 19:00N 60°01' E 025°31'1 2.1
2017-Aug-13 18:30N 59°60' E 025°31'4 9.0
2017-Aug-13 18:01N 59°56' E 025°27'612.5
2017-Aug-13 17:30N 59°50' E 025°21'713.1
2017-Aug-13 17:00N 59°48' E 025°08'713.5
2017-Aug-13 16:31N 59°47' E 024°55'713.7
2017-Aug-13 16:01N 59°45' E 024°42'713.7
2017-Aug-13 15:31N 59°44' E 024°29'713.6
2017-Aug-13 15:01N 59°42' E 024°16'713.3
2017-Aug-13 14:31N 59°40' E 024°03'713.7
2017-Aug-13 14:01N 59°38' E 023°50'713.5
2017-Aug-13 13:31N 59°36' E 023°38'713.4
2017-Aug-13 13:01N 59°33' E 023°25'713.3
2017-Aug-13 12:30N 59°31' E 023°13'713.5
2017-Aug-13 12:01N 59°29' E 023°00'613.0
2017-Aug-13 11:31N 59°26' E 022°48'612.7
2017-Aug-13 11:01N 59°24' E 022°37'612.5
2017-Aug-13 10:30N 59°21' E 022°26'612.6
2017-Aug-13 10:00N 59°17' E 022°17'612.7
2017-Aug-13 09:31N 59°13' E 022°07'612.9
2017-Aug-13 09:00N 59°09' E 021°57'713.9
2017-Aug-13 08:30N 59°05' E 021°46'4312.5
2017-Aug-13 05:06N 58°29' E 020°60'312.5
2017-Aug-13 04:53N 58°27' E 020°57'512.6
2017-Aug-13 04:30N 58°23' E 020°52'23711.9
2017-Aug-12 08:41N 55°39' E 015°39'514.7
2017-Aug-12 08:21N 55°37' E 015°31'514.7
2017-Aug-12 07:59N 55°36' E 015°22'714.5
2017-Aug-12 07:30N 55°33' E 015°10'714.5
2017-Aug-12 07:00N 55°30' E 014°59'714.6
2017-Aug-12 06:30N 55°26' E 014°48'714.7
2017-Aug-12 06:00N 55°22' E 014°36'714.3
2017-Aug-12 05:30N 55°17' E 014°28'714.1
2017-Aug-12 05:00N 55°12' E 014°20'613.0
2017-Aug-12 04:30N 55°10' E 014°09'714.0
2017-Aug-12 04:00N 55°10' E 013°57'714.1
2017-Aug-12 03:30N 55°11' E 013°45'714.1
2017-Aug-12 02:59N 55°11' E 013°32'714.2
2017-Aug-12 02:30N 55°12' E 013°20'713.9
2017-Aug-12 02:00N 55°12' E 013°08'713.6
2017-Aug-12 01:30N 55°14' E 012°56'713.9
2017-Aug-12 01:00N 55°16' E 012°45'612.0
2017-Aug-12 00:30N 55°21' E 012°38'713.4
2017-Aug-12 00:00N 55°28' E 012°41'5 9.8
2017-Aug-11 23:30N 55°32' E 012°45'4 7.7
2017-Aug-11 23:00N 55°35' E 012°50'4 8.0
2017-Aug-11 22:30N 55°38' E 012°54'4 8.2
2017-Aug-11 22:00N 55°42' E 012°54'5 9.8
2017-Aug-11 21:30N 55°46' E 012°49'510.0
2017-Aug-11 21:00N 55°50' E 012°45'5 9.8
2017-Aug-11 20:30N 55°55' E 012°44'510.0
2017-Aug-11 20:00N 55°60' E 012°40'5 9.1
2017-Aug-11 19:30N 56°04' E 012°37'4 9.0
2017-Aug-11 19:00N 56°07' E 012°31'510.0
2017-Aug-11 18:30N 56°10' E 012°24'611.1
2017-Aug-11 17:58N 56°13' E 012°15'811.4
2017-Aug-11 17:17N 56°18' E 012°04'513.9
2017-Aug-11 16:56N 56°22' E 012°02'4214.0
2017-Aug-11 13:58N 57°03' E 011°41'713.9
2017-Aug-11 13:26N 57°09' E 011°35'613.4
2017-Aug-11 13:01N 57°15' E 011°31'713.6
2017-Aug-11 12:30N 57°21' E 011°27'713.4
2017-Aug-11 12:00N 57°27' E 011°23'713.3
2017-Aug-11 11:30N 57°32' E 011°13'713.9
2017-Aug-11 11:00N 57°37' E 011°06'714.5
2017-Aug-11 10:30N 57°42' E 010°55'714.4
2017-Aug-11 10:00N 57°47' E 010°45'1812.7
2017-Aug-11 08:36N 57°45' E 010°12'214.7
2017-Aug-11 08:30N 57°44' E 010°09'914.7
2017-Aug-11 07:55N 57°41' E 009°54'16413.1
2017-Aug-10 19:23N 55°43' E 006°25'513.3
2017-Aug-10 19:00N 55°39' E 006°20'713.3
2017-Aug-10 18:30N 55°33' E 006°14'713.1
2017-Aug-10 17:58N 55°28' E 006°07'  
Track history (hours):
 
Tides and Currents Weather Stations Pressure Air Temp Water Temp Dewpoint Dewpoint Depression Visibility Wind Speed Wind Dir Waves Ship Positions

Sloman Herakles

Last reported at 2017-Aug-19 22:36 UTC. Time now 2017-Aug-20 11:35 UTC.
Position N 57°54' E 006°07'.

Length 145 m; draft 7.5 m.

Type: Tanker. MMSI: 305851000.

Date/timePositionNaut miles runAvg speedWind from/ knotsBaromVisibWave heightAir tempDewpointWater temp
2017-Aug-19 22:36N 57°54' E 006°07'312.8
2017-Aug-19 22:24N 57°53' E 006°12'512.2
2017-Aug-19 22:00N 57°52' E 006°21'612.5
2017-Aug-19 21:30N 57°50' E 006°32'612.5
2017-Aug-19 21:00N 57°49' E 006°44'613.0
2017-Aug-19 20:30N 57°48' E 006°56'713.1
2017-Aug-19 20:00N 57°48' E 007°08'612.8
2017-Aug-19 19:30N 57°48' E 007°20'713.0
2017-Aug-19 19:00N 57°47' E 007°32'713.2
2017-Aug-19 18:30N 57°47' E 007°45'612.7
2017-Aug-19 18:00N 57°46' E 007°56'612.3
2017-Aug-19 17:30N 57°46' E 008°08'6911.2
2017-Aug-19 11:23N 57°53' E 010°16'512.0
2017-Aug-19 11:00N 57°53' E 010°25'612.1
2017-Aug-19 10:29N 57°54' E 010°37'611.5
2017-Aug-19 10:00N 57°55' E 010°47'5 9.1
2017-Aug-19 09:30N 57°55' E 010°55'0 0.9
2017-Aug-19 08:59N 57°54' E 010°56'1 1.3
2017-Aug-19 08:26N 57°54' E 010°54'1 1.1
2017-Aug-19 07:56N 57°54' E 010°54'0 1.0
2017-Aug-19 07:29N 57°54' E 010°53'1 1.0
2017-Aug-19 06:59N 57°53' E 010°52'0 1.0
2017-Aug-19 06:29N 57°53' E 010°51'1 1.0
2017-Aug-19 05:59N 57°53' E 010°50'1 1.3
2017-Aug-19 05:11N 57°53' E 010°48'0 1.3
2017-Aug-19 04:59N 57°53' E 010°48'1 1.3
2017-Aug-19 04:26N 57°54' E 010°46'1 1.4
2017-Aug-19 03:53N 57°54' E 010°45'1 1.2
2017-Aug-19 03:23N 57°54' E 010°44'0 1.1
2017-Aug-19 02:59N 57°54' E 010°43'0 0.3
2017-Aug-19 02:30N 57°54' E 010°43'4 7.6
2017-Aug-19 01:59N 57°50' E 010°44'3 6.9
2017-Aug-19 01:30N 57°47' E 010°46'4 8.0
2017-Aug-19 01:00N 57°43' E 010°44'2 2.7
2017-Aug-19 00:10N 57°42' E 010°41'0 0.0
2017-Aug-18 23:07N 57°42' E 010°41'0 0.0
2017-Aug-18 21:58N 57°42' E 010°41'0 0.0
2017-Aug-18 21:30N 57°42' E 010°41'0 0.0
2017-Aug-18 21:00N 57°42' E 010°41'0 0.1
2017-Aug-18 20:30N 57°42' E 010°41'0 0.1
2017-Aug-18 19:59N 57°42' E 010°41'0 0.0
2017-Aug-18 19:30N 57°42' E 010°41'0 0.0
2017-Aug-18 18:59N 57°42' E 010°41'0 0.0
2017-Aug-18 18:30N 57°42' E 010°41'0 0.1
2017-Aug-18 18:01N 57°42' E 010°41'2 3.7
2017-Aug-18 17:29N 57°43' E 010°44'2 5.1
2017-Aug-18 17:01N 57°44' E 010°48'3 5.9
2017-Aug-18 16:31N 57°45' E 010°53'1 2.7
2017-Aug-18 15:59N 57°44' E 010°54'5 9.6
2017-Aug-18 15:30N 57°41' E 011°01'611.0
2017-Aug-18 15:00N 57°37' E 011°08'1111.4
2017-Aug-18 14:00N 57°29' E 011°24'611.5
2017-Aug-18 13:30N 57°24' E 011°29'612.0
2017-Aug-18 13:00N 57°19' E 011°32'611.9
2017-Aug-18 12:29N 57°13' E 011°36'711.8
2017-Aug-18 11:52N 57°06' E 011°41'411.3
2017-Aug-18 11:31N 57°02' E 011°44'10711.4
2017-Aug-18 02:10N 55°18' E 011°03'211.3
2017-Aug-18 02:00N 55°16' E 011°05'611.3
2017-Aug-18 01:30N 55°10' E 011°04'713.6
2017-Aug-18 01:00N 55°04' E 011°03'612.1
2017-Aug-18 00:30N 54°58' E 010°60'612.3
2017-Aug-18 00:00N 54°53' E 010°54'612.5
2017-Aug-17 23:30N 54°47' E 010°53'611.3
2017-Aug-17 23:00N 54°41' E 010°55'611.9
2017-Aug-17 22:30N 54°38' E 011°04'510.6
2017-Aug-17 22:00N 54°36' E 011°13'5 9.3
2017-Aug-17 21:30N 54°34' E 011°20'5 9.7
2017-Aug-17 21:00N 54°32' E 011°27'5 9.8
2017-Aug-17 20:30N 54°30' E 011°35'5 9.6
2017-Aug-17 20:00N 54°28' E 011°43'9 9.3
2017-Aug-17 19:02N 54°27' E 011°58'0 9.6
2017-Aug-17 19:00N 54°27' E 011°58'5 9.4
2017-Aug-17 18:30N 54°27' E 012°06'5 9.2
2017-Aug-17 18:00N 54°31' E 012°11'713.1
2017-Aug-17 17:30N 54°37' E 012°15'3213.6
2017-Aug-17 15:07N 54°52' E 013°04'213.6
2017-Aug-17 14:57N 54°53' E 013°08'613.7
2017-Aug-17 14:30N 54°55' E 013°18'714.0
2017-Aug-17 14:00N 54°57' E 013°30'713.6
2017-Aug-17 13:30N 54°60' E 013°41'713.8
2017-Aug-17 13:00N 55°02' E 013°52'713.6
2017-Aug-17 12:30N 55°04' E 014°03'612.7
2017-Aug-17 12:00N 55°09' E 014°11'713.4
2017-Aug-17 11:30N 55°14' E 014°18'713.5
2017-Aug-17 11:00N 55°20' E 014°25'713.7
2017-Aug-17 10:30N 55°25' E 014°32'713.6
2017-Aug-17 10:00N 55°29' E 014°41'713.6
2017-Aug-17 09:31N 55°32' E 014°52'713.8
2017-Aug-17 09:01N 55°36' E 015°03'713.6
2017-Aug-17 08:31N 55°38' E 015°14'713.4
2017-Aug-17 08:01N 55°40' E 015°25'713.5
2017-Aug-17 07:31N 55°41' E 015°37'713.5
2017-Aug-17 07:00N 55°43' E 015°49'713.6
2017-Aug-17 06:31N 55°45' E 016°00'713.6
2017-Aug-17 06:01N 55°47' E 016°12'713.7
2017-Aug-17 05:31N 55°48' E 016°24'713.9
2017-Aug-17 05:00N 55°50' E 016°36'713.9
2017-Aug-17 04:31N 55°52' E 016°48'713.6
2017-Aug-17 03:59N 55°53' E 017°00'713.7
2017-Aug-17 03:30N 55°55' E 017°12'713.6
2017-Aug-17 03:00N 55°57' E 017°23'16813.1
2017-Aug-16 14:09N 58°12' E 020°25'214.4
2017-Aug-16 14:00N 58°14' E 020°28'713.5
2017-Aug-16 13:30N 58°20' E 020°34'612.9
2017-Aug-16 13:00N 58°25' E 020°41'712.8
2017-Aug-16 12:30N 58°31' E 020°48'613.0
2017-Aug-16 12:00N 58°36' E 020°55'612.6
2017-Aug-16 11:30N 58°41' E 021°01'812.7
2017-Aug-16 10:51N 58°49' E 021°09'412.7
2017-Aug-16 10:30N 58°52' E 021°14'612.0
2017-Aug-16 10:00N 58°57' E 021°20'612.4
2017-Aug-16 09:30N 59°03' E 021°26'713.7
2017-Aug-16 09:00N 59°08' E 021°33'612.5
2017-Aug-16 08:30N 59°13' E 021°43'612.4
2017-Aug-16 08:00N 59°17' E 021°52'714.5
2017-Aug-16 07:30N 59°21' E 022°03'611.6
2017-Aug-16 07:00N 59°25' E 022°12'714.8
2017-Aug-16 06:30N 59°29' E 022°24'612.1
2017-Aug-16 06:00N 59°32' E 022°34'815.8
2017-Aug-16 05:30N 59°35' E 022°48'611.8
2017-Aug-16 05:00N 59°36' E 022°60'713.1
2017-Aug-16 04:30N 59°38' E 023°12'713.3
2017-Aug-16 04:00N 59°40' E 023°25'713.4
2017-Aug-16 03:30N 59°42' E 023°38'713.7
2017-Aug-16 03:00N 59°43' E 023°51'714.0
2017-Aug-16 02:31N 59°45' E 024°04'713.1
2017-Aug-16 02:00N 59°46' E 024°17'713.6
2017-Aug-16 01:31N 59°48' E 024°30'612.4
2017-Aug-16 01:00N 59°49' E 024°42'714.9
2017-Aug-16 00:30N 59°51' E 024°57'612.3
2017-Aug-16 00:00N 59°53' E 025°08'713.1
2017-Aug-15 23:30N 59°56' E 025°19'613.0
2017-Aug-15 23:01N 59°59' E 025°30'5 9.5
2017-Aug-15 22:31N 60°04' E 025°34'510.6
2017-Aug-15 22:01N 60°09' E 025°35'612.4
2017-Aug-15 21:31N 60°15' E 025°34'3 6.9
2017-Aug-15 21:00N 60°19' E 025°34'0 0.4
2017-Aug-15 20:28N 60°19' E 025°33'0 0.0
2017-Aug-15 19:52N 60°19' E 025°33'0 0.0
2017-Aug-15 19:28N 60°19' E 025°33'0 0.0
2017-Aug-15 18:58N 60°19' E 025°33'0 0.0
2017-Aug-15 18:30N 60°19' E 025°33'0 0.0
2017-Aug-15 18:00N 60°19' E 025°33'0 0.0
2017-Aug-15 17:30N 60°19' E 025°33'0 0.0
2017-Aug-15 17:00N 60°19' E 025°33'0 0.0
2017-Aug-15 16:30N 60°19' E 025°33'0 0.0
2017-Aug-15 16:00N 60°19' E 025°33'0 0.0
2017-Aug-15 15:30N 60°19' E 025°33'0 0.0
2017-Aug-15 15:00N 60°19' E 025°33'0 0.0
2017-Aug-15 14:24N 60°19' E 025°33'0 0.0
2017-Aug-15 14:00N 60°19' E 025°33'0 0.0
2017-Aug-15 13:30N 60°19' E 025°33'0 0.0
2017-Aug-15 12:57N 60°19' E 025°33'0 0.0
2017-Aug-15 12:30N 60°19' E 025°33'0 0.0
2017-Aug-15 12:00N 60°19' E 025°33'0 0.0
2017-Aug-15 11:30N 60°19' E 025°33'0 0.0
2017-Aug-15 11:00N 60°19' E 025°33'0 0.0
2017-Aug-15 10:30N 60°19' E 025°33'0 0.0
2017-Aug-15 10:00N 60°19' E 025°33'0 0.0
2017-Aug-15 09:30N 60°19' E 025°33'0 0.0
2017-Aug-15 09:00N 60°19' E 025°33'0 0.0
2017-Aug-15 08:30N 60°19' E 025°33'0 0.0
2017-Aug-15 08:00N 60°19' E 025°33'0 0.0
2017-Aug-15 07:24N 60°19' E 025°33'0 0.0
2017-Aug-15 07:00N 60°19' E 025°33'0 0.0
2017-Aug-15 06:30N 60°19' E 025°33'0 0.0
2017-Aug-15 06:00N 60°19' E 025°33'0 0.0
2017-Aug-15 05:30N 60°19' E 025°33'0 0.0
2017-Aug-15 05:00N 60°19' E 025°33'0 0.0
2017-Aug-15 04:30N 60°19' E 025°33'0 0.0
2017-Aug-15 04:00N 60°19' E 025°33'0 0.0
2017-Aug-15 03:30N 60°19' E 025°33'0 0.0
2017-Aug-15 03:00N 60°19' E 025°33'0 0.0
2017-Aug-15 02:30N 60°19' E 025°33'0 0.0
2017-Aug-15 02:00N 60°19' E 025°33'1 1.7
2017-Aug-15 01:30N 60°18' E 025°33'4 8.0
2017-Aug-15 01:00N 60°14' E 025°35'611.5
2017-Aug-15 00:30N 60°08' E 025°35'5 9.8
2017-Aug-15 00:00N 60°03' E 025°34'3 6.2
2017-Aug-14 23:30N 60°01' E 025°31'0 0.4
2017-Aug-14 23:00N 60°01' E 025°31'0 0.0
2017-Aug-14 22:30N 60°01' E 025°31'0 0.0
2017-Aug-14 22:00N 60°01' E 025°31'0 0.0
2017-Aug-14 21:30N 60°01' E 025°31'0 0.0
2017-Aug-14 21:00N 60°01' E 025°31'0 0.0
2017-Aug-14 20:30N 60°01' E 025°31'0 0.0
2017-Aug-14 20:00N 60°01' E 025°31'0 0.0
2017-Aug-14 19:30N 60°01' E 025°31'0 0.0
2017-Aug-14 19:00N 60°01' E 025°31'0 0.0
2017-Aug-14 18:30N 60°01' E 025°31'0 0.0
2017-Aug-14 18:00N 60°01' E 025°31'0 0.0
2017-Aug-14 17:30N 60°01' E 025°31'0 0.0
2017-Aug-14 17:00N 60°01' E 025°31'0 0.0
2017-Aug-14 16:30N 60°01' E 025°31'0 0.0
2017-Aug-14 16:00N 60°01' E 025°31'0 0.0
2017-Aug-14 15:30N 60°01' E 025°31'0 0.0
2017-Aug-14 15:00N 60°01' E 025°31'0 0.0
2017-Aug-14 14:30N 60°01' E 025°31'0 0.0
2017-Aug-14 14:00N 60°01' E 025°31'0 0.0
2017-Aug-14 13:30N 60°01' E 025°31'0 0.0
2017-Aug-14 13:00N 60°01' E 025°31'0 0.1
2017-Aug-14 12:30N 60°01' E 025°31'0 0.1
2017-Aug-14 12:00N 60°01' E 025°31'0 0.1
2017-Aug-14 11:30N 60°01' E 025°31'0 0.1
2017-Aug-14 11:00N 60°01' E 025°31'0 0.0
2017-Aug-14 10:31N 60°01' E 025°31'0 0.0
2017-Aug-14 10:01N 60°01' E 025°31'0 0.0
2017-Aug-14 09:31N 60°01' E 025°31'0 0.0
2017-Aug-14 09:00N 60°01' E 025°31'0 0.0
2017-Aug-14 08:30N 60°01' E 025°31'0 0.0
2017-Aug-14 08:00N 60°01' E 025°31'0 0.0
2017-Aug-14 07:30N 60°01' E 025°31'0 0.0
2017-Aug-14 07:00N 60°01' E 025°31'0 0.0
2017-Aug-14 06:30N 60°01' E 025°31'0 0.0
2017-Aug-14 06:00N 60°01' E 025°31'0 0.0
2017-Aug-14 05:30N 60°01' E 025°31'0 0.0
2017-Aug-14 05:00N 60°01' E 025°31'0 0.0
2017-Aug-14 04:30N 60°01' E 025°31'0 0.0
2017-Aug-14 04:00N 60°01' E 025°31'0 0.0
2017-Aug-14 03:30N 60°01' E 025°31'0 0.0
2017-Aug-14 03:00N 60°01' E 025°31'0 0.0
2017-Aug-14 02:31N 60°01' E 025°31'0 0.0
2017-Aug-14 02:00N 60°01' E 025°31'0 0.0
2017-Aug-14 01:30N 60°01' E 025°31'0 0.0
2017-Aug-14 01:00N 60°01' E 025°31'0 0.0
2017-Aug-14 00:31N 60°01' E 025°31'0 0.0
2017-Aug-14 00:01N 60°01' E 025°31'0 0.1
2017-Aug-13 23:30N 60°01' E 025°31'0 0.0
2017-Aug-13 23:00N 60°01' E 025°31'0 0.0
2017-Aug-13 22:30N 60°01' E 025°31'0 0.0
2017-Aug-13 22:00N 60°01' E 025°31'0 0.0
2017-Aug-13 21:31N 60°01' E 025°31'0 0.0
2017-Aug-13 21:00N 60°01' E 025°31'0 0.0
2017-Aug-13 20:30N 60°01' E 025°31'0 0.1
2017-Aug-13 20:00N 60°01' E 025°31'0 0.1
2017-Aug-13 19:30N 60°01' E 025°31'0 0.1
2017-Aug-13 19:00N 60°01' E 025°31'1 2.1
2017-Aug-13 18:30N 59°60' E 025°31'4 9.0
2017-Aug-13 18:01N 59°56' E 025°27'612.5
2017-Aug-13 17:30N 59°50' E 025°21'713.1
2017-Aug-13 17:00N 59°48' E 025°08'713.5
2017-Aug-13 16:31N 59°47' E 024°55'713.7
2017-Aug-13 16:01N 59°45' E 024°42'713.7
2017-Aug-13 15:31N 59°44' E 024°29'713.6
2017-Aug-13 15:01N 59°42' E 024°16'713.3
2017-Aug-13 14:31N 59°40' E 024°03'713.7
2017-Aug-13 14:01N 59°38' E 023°50'713.5
2017-Aug-13 13:31N 59°36' E 023°38'713.4
2017-Aug-13 13:01N 59°33' E 023°25'713.3
2017-Aug-13 12:30N 59°31' E 023°13'713.5
2017-Aug-13 12:01N 59°29' E 023°00'613.0
2017-Aug-13 11:31N 59°26' E 022°48'612.7
2017-Aug-13 11:01N 59°24' E 022°37'612.5
2017-Aug-13 10:30N 59°21' E 022°26'612.6
2017-Aug-13 10:00N 59°17' E 022°17'612.7
2017-Aug-13 09:31N 59°13' E 022°07'612.9
2017-Aug-13 09:00N 59°09' E 021°57'713.9
2017-Aug-13 08:30N 59°05' E 021°46'4312.5
2017-Aug-13 05:06N 58°29' E 020°60'312.5
2017-Aug-13 04:53N 58°27' E 020°57'512.6
2017-Aug-13 04:30N 58°23' E 020°52'23711.9
2017-Aug-12 08:41N 55°39' E 015°39'514.7
2017-Aug-12 08:21N 55°37' E 015°31'514.7
2017-Aug-12 07:59N 55°36' E 015°22'714.5
2017-Aug-12 07:30N 55°33' E 015°10'714.5
2017-Aug-12 07:00N 55°30' E 014°59'714.6
2017-Aug-12 06:30N 55°26' E 014°48'714.7
2017-Aug-12 06:00N 55°22' E 014°36'714.3
2017-Aug-12 05:30N 55°17' E 014°28'714.1
2017-Aug-12 05:00N 55°12' E 014°20'613.0
2017-Aug-12 04:30N 55°10' E 014°09'714.0
2017-Aug-12 04:00N 55°10' E 013°57'714.1
2017-Aug-12 03:30N 55°11' E 013°45'714.1
2017-Aug-12 02:59N 55°11' E 013°32'714.2
2017-Aug-12 02:30N 55°12' E 013°20'713.9
2017-Aug-12 02:00N 55°12' E 013°08'713.6
2017-Aug-12 01:30N 55°14' E 012°56'713.9
2017-Aug-12 01:00N 55°16' E 012°45'612.0
2017-Aug-12 00:30N 55°21' E 012°38'713.4
2017-Aug-12 00:00N 55°28' E 012°41'5 9.8
2017-Aug-11 23:30N 55°32' E 012°45'4 7.7
2017-Aug-11 23:00N 55°35' E 012°50'4 8.0
2017-Aug-11 22:30N 55°38' E 012°54'4 8.2
2017-Aug-11 22:00N 55°42' E 012°54'5 9.8
2017-Aug-11 21:30N 55°46' E 012°49'510.0
2017-Aug-11 21:00N 55°50' E 012°45'5 9.8
2017-Aug-11 20:30N 55°55' E 012°44'510.0
2017-Aug-11 20:00N 55°60' E 012°40'5 9.1
2017-Aug-11 19:30N 56°04' E 012°37'4 9.0
2017-Aug-11 19:00N 56°07' E 012°31'510.0
2017-Aug-11 18:30N 56°10' E 012°24'611.1
2017-Aug-11 17:58N 56°13' E 012°15'811.4
2017-Aug-11 17:17N 56°18' E 012°04'513.9
2017-Aug-11 16:56N 56°22' E 012°02'4214.0
2017-Aug-11 13:58N 57°03' E 011°41'713.9
2017-Aug-11 13:26N 57°09' E 011°35'613.4
2017-Aug-11 13:01N 57°15' E 011°31'713.6
2017-Aug-11 12:30N 57°21' E 011°27'713.4
2017-Aug-11 12:00N 57°27' E 011°23'713.3
2017-Aug-11 11:30N 57°32' E 011°13'713.9
2017-Aug-11 11:00N 57°37' E 011°06'714.5
2017-Aug-11 10:30N 57°42' E 010°55'714.4
2017-Aug-11 10:00N 57°47' E 010°45'1812.7
2017-Aug-11 08:36N 57°45' E 010°12'214.7
2017-Aug-11 08:30N 57°44' E 010°09'914.7
2017-Aug-11 07:55N 57°41' E 009°54'16413.1
2017-Aug-10 19:23N 55°43' E 006°25'513.3
2017-Aug-10 19:00N 55°39' E 006°20'713.3
2017-Aug-10 18:30N 55°33' E 006°14'713.1
2017-Aug-10 17:58N 55°28' E 006°07'  

Dump ship's entire track history